sensor_id;sensor_type;location;lat;lon;timestamp;temperature;humidity
45319;DHT22;31057;48.498;32.260;2023-07-24T00:00:05;15.40;99.90
45319;DHT22;31057;48.498;32.260;2023-07-24T00:02:07;15.30;99.90
45319;DHT22;31057;48.498;32.260;2023-07-24T00:04:08;15.20;99.90
45319;DHT22;31057;48.498;32.260;2023-07-24T00:06:10;15.30;99.90
45319;DHT22;31057;48.498;32.260;2023-07-24T00:08:12;15.20;99.90
45319;DHT22;31057;48.498;32.260;2023-07-24T00:10:14;15.20;99.90
45319;DHT22;31057;48.498;32.260;2023-07-24T00:12:16;15.20;99.90
45319;DHT22;31057;48.498;32.260;2023-07-24T00:14:18;15.30;99.90
45319;DHT22;31057;48.498;32.260;2023-07-24T00:16:20;15.20;99.90
45319;DHT22;31057;48.498;32.260;2023-07-24T00:18:21;15.20;99.90
45319;DHT22;31057;48.498;32.260;2023-07-24T00:20:23;15.10;99.90
45319;DHT22;31057;48.498;32.260;2023-07-24T00:22:26;15.10;99.90
45319;DHT22;31057;48.498;32.260;2023-07-24T00:24:29;15.10;99.90
45319;DHT22;31057;48.498;32.260;2023-07-24T00:26:31;15.10;99.90
45319;DHT22;31057;48.498;32.260;2023-07-24T00:28:33;15.10;99.90
45319;DHT22;31057;48.498;32.260;2023-07-24T00:30:35;15.00;99.90
45319;DHT22;31057;48.498;32.260;2023-07-24T00:32:37;14.90;99.90
45319;DHT22;31057;48.498;32.260;2023-07-24T00:34:39;14.90;99.90
45319;DHT22;31057;48.498;32.260;2023-07-24T00:36:41;14.90;99.90
45319;DHT22;31057;48.498;32.260;2023-07-24T00:38:42;14.90;99.90
45319;DHT22;31057;48.498;32.260;2023-07-24T00:40:44;14.80;99.90
45319;DHT22;31057;48.498;32.260;2023-07-24T00:42:47;14.80;99.90
45319;DHT22;31057;48.498;32.260;2023-07-24T00:44:49;14.90;99.90
45319;DHT22;31057;48.498;32.260;2023-07-24T00:46:51;15.00;99.90
45319;DHT22;31057;48.498;32.260;2023-07-24T00:48:53;15.00;99.90
45319;DHT22;31057;48.498;32.260;2023-07-24T00:50:55;15.00;99.90
45319;DHT22;31057;48.498;32.260;2023-07-24T00:52:57;15.00;99.90
45319;DHT22;31057;48.498;32.260;2023-07-24T00:54:59;15.00;99.90
45319;DHT22;31057;48.498;32.260;2023-07-24T00:57:02;14.90;99.90
45319;DHT22;31057;48.498;32.260;2023-07-24T00:59:04;14.90;99.90
45319;DHT22;31057;48.498;32.260;2023-07-24T01:01:06;14.80;99.90
45319;DHT22;31057;48.498;32.260;2023-07-24T01:03:08;14.80;99.90
45319;DHT22;31057;48.498;32.260;2023-07-24T01:05:11;14.90;99.90
45319;DHT22;31057;48.498;32.260;2023-07-24T01:07:14;14.80;99.90
45319;DHT22;31057;48.498;32.260;2023-07-24T01:09:18;14.70;99.90
45319;DHT22;31057;48.498;32.260;2023-07-24T01:12:04;14.70;99.90
45319;DHT22;31057;48.498;32.260;2023-07-24T01:14:21;14.80;99.90
45319;DHT22;31057;48.498;32.260;2023-07-24T01:16:14;14.70;99.90
45319;DHT22;31057;48.498;32.260;2023-07-24T01:18:17;14.80;99.90
45319;DHT22;31057;48.498;32.260;2023-07-24T01:20:19;14.70;99.90
45319;DHT22;31057;48.498;32.260;2023-07-24T01:25:10;14.70;99.90
45319;DHT22;31057;48.498;32.260;2023-07-24T01:26:47;14.70;99.90
45319;DHT22;31057;48.498;32.260;2023-07-24T01:28:49;14.80;99.90
45319;DHT22;31057;48.498;32.260;2023-07-24T01:30:51;14.70;99.90
45319;DHT22;31057;48.498;32.260;2023-07-24T01:32:53;14.70;99.90
45319;DHT22;31057;48.498;32.260;2023-07-24T01:34:55;14.70;99.90
45319;DHT22;31057;48.498;32.260;2023-07-24T01:36:57;14.70;99.90
45319;DHT22;31057;48.498;32.260;2023-07-24T01:38:59;14.60;99.90
45319;DHT22;31057;48.498;32.260;2023-07-24T01:41:02;14.60;99.90
45319;DHT22;31057;48.498;32.260;2023-07-24T01:43:04;14.50;99.90
45319;DHT22;31057;48.498;32.260;2023-07-24T01:45:06;14.50;99.90
45319;DHT22;31057;48.498;32.260;2023-07-24T01:47:08;14.50;99.90
45319;DHT22;31057;48.498;32.260;2023-07-24T01:49:10;14.60;99.90
45319;DHT22;31057;48.498;32.260;2023-07-24T01:51:12;14.50;99.90
45319;DHT22;31057;48.498;32.260;2023-07-24T01:53:14;14.40;99.90
45319;DHT22;31057;48.498;32.260;2023-07-24T01:55:15;14.30;99.90
45319;DHT22;31057;48.498;32.260;2023-07-24T01:57:17;14.30;99.90
45319;DHT22;31057;48.498;32.260;2023-07-24T01:59:19;14.20;99.90
45319;DHT22;31057;48.498;32.260;2023-07-24T02:01:21;14.30;99.90
45319;DHT22;31057;48.498;32.260;2023-07-24T02:03:23;14.40;99.90
45319;DHT22;31057;48.498;32.260;2023-07-24T02:05:25;14.40;99.90
45319;DHT22;31057;48.498;32.260;2023-07-24T02:07:27;14.50;99.90
45319;DHT22;31057;48.498;32.260;2023-07-24T02:09:29;14.40;99.90
45319;DHT22;31057;48.498;32.260;2023-07-24T02:11:30;14.40;99.90
45319;DHT22;31057;48.498;32.260;2023-07-24T02:13:32;14.30;99.90
45319;DHT22;31057;48.498;32.260;2023-07-24T02:15:34;14.30;99.90
45319;DHT22;31057;48.498;32.260;2023-07-24T02:17:36;14.30;99.90
45319;DHT22;31057;48.498;32.260;2023-07-24T02:19:38;14.20;99.90
45319;DHT22;31057;48.498;32.260;2023-07-24T02:21:40;14.30;99.90
45319;DHT22;31057;48.498;32.260;2023-07-24T02:23:42;14.30;99.90
45319;DHT22;31057;48.498;32.260;2023-07-24T02:25:44;14.20;99.90
45319;DHT22;31057;48.498;32.260;2023-07-24T02:27:46;14.20;99.90
45319;DHT22;31057;48.498;32.260;2023-07-24T02:29:47;14.30;99.90
45319;DHT22;31057;48.498;32.260;2023-07-24T02:31:50;14.50;99.90
45319;DHT22;31057;48.498;32.260;2023-07-24T02:33:52;14.50;99.90
45319;DHT22;31057;48.498;32.260;2023-07-24T02:35:54;14.50;99.90
45319;DHT22;31057;48.498;32.260;2023-07-24T02:37:55;14.50;99.90
45319;DHT22;31057;48.498;32.260;2023-07-24T02:39:57;14.50;99.90
45319;DHT22;31057;48.498;32.260;2023-07-24T02:41:59;14.60;99.90
45319;DHT22;31057;48.498;32.260;2023-07-24T02:44:02;14.70;99.90
45319;DHT22;31057;48.498;32.260;2023-07-24T02:46:04;14.70;99.90
45319;DHT22;31057;48.498;32.260;2023-07-24T02:48:06;14.80;99.90
45319;DHT22;31057;48.498;32.260;2023-07-24T02:50:08;14.80;99.90
45319;DHT22;31057;48.498;32.260;2023-07-24T02:52:10;14.80;99.90
45319;DHT22;31057;48.498;32.260;2023-07-24T02:54:11;14.80;99.90
45319;DHT22;31057;48.498;32.260;2023-07-24T02:56:13;14.90;99.90
45319;DHT22;31057;48.498;32.260;2023-07-24T02:58:15;15.20;99.90
45319;DHT22;31057;48.498;32.260;2023-07-24T03:00:17;15.90;99.90
45319;DHT22;31057;48.498;32.260;2023-07-24T03:02:19;16.40;99.90
45319;DHT22;31057;48.498;32.260;2023-07-24T03:04:21;16.70;99.90
45319;DHT22;31057;48.498;32.260;2023-07-24T03:06:23;16.90;99.90
45319;DHT22;31057;48.498;32.260;2023-07-24T03:08:25;17.00;99.90
45319;DHT22;31057;48.498;32.260;2023-07-24T03:10:27;17.30;99.90
45319;DHT22;31057;48.498;32.260;2023-07-24T03:12:29;17.30;99.90
45319;DHT22;31057;48.498;32.260;2023-07-24T03:14:30;17.10;99.90
45319;DHT22;31057;48.498;32.260;2023-07-24T03:16:32;17.10;99.90
45319;DHT22;31057;48.498;32.260;2023-07-24T03:18:34;16.90;99.90
45319;DHT22;31057;48.498;32.260;2023-07-24T03:20:36;16.10;99.90
45319;DHT22;31057;48.498;32.260;2023-07-24T03:22:38;15.50;99.90
45319;DHT22;31057;48.498;32.260;2023-07-24T03:24:40;15.30;99.90
45319;DHT22;31057;48.498;32.260;2023-07-24T03:26:41;15.50;99.90
45319;DHT22;31057;48.498;32.260;2023-07-24T03:28:43;15.60;99.90
45319;DHT22;31057;48.498;32.260;2023-07-24T03:30:45;15.70;99.90
45319;DHT22;31057;48.498;32.260;2023-07-24T03:32:47;15.80;99.90
45319;DHT22;31057;48.498;32.260;2023-07-24T03:34:49;15.80;99.90
45319;DHT22;31057;48.498;32.260;2023-07-24T03:36:51;15.90;99.90
45319;DHT22;31057;48.498;32.260;2023-07-24T03:38:52;15.90;99.90
45319;DHT22;31057;48.498;32.260;2023-07-24T03:40:54;16.00;99.90
45319;DHT22;31057;48.498;32.260;2023-07-24T03:42:56;16.10;99.90
45319;DHT22;31057;48.498;32.260;2023-07-24T03:44:58;16.20;99.90
45319;DHT22;31057;48.498;32.260;2023-07-24T03:47:00;16.20;99.90
45319;DHT22;31057;48.498;32.260;2023-07-24T03:49:01;16.30;99.90
45319;DHT22;31057;48.498;32.260;2023-07-24T03:51:03;16.30;99.90
45319;DHT22;31057;48.498;32.260;2023-07-24T03:53:05;16.40;99.90
45319;DHT22;31057;48.498;32.260;2023-07-24T03:55:07;16.40;99.90
45319;DHT22;31057;48.498;32.260;2023-07-24T03:57:09;16.50;99.90
45319;DHT22;31057;48.498;32.260;2023-07-24T03:59:11;16.70;99.90
45319;DHT22;31057;48.498;32.260;2023-07-24T04:01:13;16.80;99.90
45319;DHT22;31057;48.498;32.260;2023-07-24T04:03:15;16.90;99.90
45319;DHT22;31057;48.498;32.260;2023-07-24T04:05:17;17.00;99.90
45319;DHT22;31057;48.498;32.260;2023-07-24T04:07:19;17.10;99.90
45319;DHT22;31057;48.498;32.260;2023-07-24T04:09:21;17.10;99.90
45319;DHT22;31057;48.498;32.260;2023-07-24T04:11:23;17.10;99.90
45319;DHT22;31057;48.498;32.260;2023-07-24T04:13:25;17.10;99.90
45319;DHT22;31057;48.498;32.260;2023-07-24T04:15:27;17.20;99.90
45319;DHT22;31057;48.498;32.260;2023-07-24T04:17:29;17.20;99.90
45319;DHT22;31057;48.498;32.260;2023-07-24T04:19:30;17.30;99.90
45319;DHT22;31057;48.498;32.260;2023-07-24T04:21:32;17.40;99.90
45319;DHT22;31057;48.498;32.260;2023-07-24T04:23:34;17.60;99.90
45319;DHT22;31057;48.498;32.260;2023-07-24T04:25:37;17.80;99.90
45319;DHT22;31057;48.498;32.260;2023-07-24T04:27:39;17.90;99.90
45319;DHT22;31057;48.498;32.260;2023-07-24T04:29:41;18.00;99.90
45319;DHT22;31057;48.498;32.260;2023-07-24T04:31:43;18.10;99.90
45319;DHT22;31057;48.498;32.260;2023-07-24T04:33:45;18.10;99.90
45319;DHT22;31057;48.498;32.260;2023-07-24T04:35:49;18.20;99.90
45319;DHT22;31057;48.498;32.260;2023-07-24T04:37:51;18.10;99.90
45319;DHT22;31057;48.498;32.260;2023-07-24T04:39:54;18.30;99.90
45319;DHT22;31057;48.498;32.260;2023-07-24T04:41:56;18.50;99.90
45319;DHT22;31057;48.498;32.260;2023-07-24T04:43:58;18.60;99.90
45319;DHT22;31057;48.498;32.260;2023-07-24T04:46:00;18.70;99.90
45319;DHT22;31057;48.498;32.260;2023-07-24T04:48:02;18.80;99.90
45319;DHT22;31057;48.498;32.260;2023-07-24T04:50:04;18.90;99.90
45319;DHT22;31057;48.498;32.260;2023-07-24T04:52:06;19.00;99.90
45319;DHT22;31057;48.498;32.260;2023-07-24T04:54:08;19.00;99.90
45319;DHT22;31057;48.498;32.260;2023-07-24T04:56:10;19.20;99.90
45319;DHT22;31057;48.498;32.260;2023-07-24T04:58:12;19.30;99.90
45319;DHT22;31057;48.498;32.260;2023-07-24T05:00:14;19.50;99.90
45319;DHT22;31057;48.498;32.260;2023-07-24T05:02:16;19.60;99.90
45319;DHT22;31057;48.498;32.260;2023-07-24T05:04:17;19.60;99.90
45319;DHT22;31057;48.498;32.260;2023-07-24T05:06:19;19.70;99.90
45319;DHT22;31057;48.498;32.260;2023-07-24T05:08:21;19.90;99.90
45319;DHT22;31057;48.498;32.260;2023-07-24T05:10:23;20.00;99.90
45319;DHT22;31057;48.498;32.260;2023-07-24T05:12:25;20.10;99.90
45319;DHT22;31057;48.498;32.260;2023-07-24T05:14:27;20.30;99.90
45319;DHT22;31057;48.498;32.260;2023-07-24T05:16:29;20.30;99.90
45319;DHT22;31057;48.498;32.260;2023-07-24T05:18:31;20.10;99.90
45319;DHT22;31057;48.498;32.260;2023-07-24T05:20:33;20.30;99.90
45319;DHT22;31057;48.498;32.260;2023-07-24T05:22:35;20.40;99.90
45319;DHT22;31057;48.498;32.260;2023-07-24T05:24:37;20.50;99.90
45319;DHT22;31057;48.498;32.260;2023-07-24T05:26:39;20.70;99.90
45319;DHT22;31057;48.498;32.260;2023-07-24T05:28:41;20.60;99.90
45319;DHT22;31057;48.498;32.260;2023-07-24T05:30:43;20.60;99.90
45319;DHT22;31057;48.498;32.260;2023-07-24T05:32:45;20.80;99.90
45319;DHT22;31057;48.498;32.260;2023-07-24T05:34:47;20.80;99.90
45319;DHT22;31057;48.498;32.260;2023-07-24T05:36:49;20.80;99.90
45319;DHT22;31057;48.498;32.260;2023-07-24T05:38:51;20.90;99.90
45319;DHT22;31057;48.498;32.260;2023-07-24T05:40:55;20.90;99.90
45319;DHT22;31057;48.498;32.260;2023-07-24T05:42:56;21.10;99.90
45319;DHT22;31057;48.498;32.260;2023-07-24T05:44:58;21.20;99.90
45319;DHT22;31057;48.498;32.260;2023-07-24T05:47:00;21.30;99.90
45319;DHT22;31057;48.498;32.260;2023-07-24T05:49:02;21.30;99.90
45319;DHT22;31057;48.498;32.260;2023-07-24T05:51:04;21.30;99.90
45319;DHT22;31057;48.498;32.260;2023-07-24T05:53:05;21.40;99.90
45319;DHT22;31057;48.498;32.260;2023-07-24T05:55:07;21.50;99.90
45319;DHT22;31057;48.498;32.260;2023-07-24T05:57:10;21.70;99.90
45319;DHT22;31057;48.498;32.260;2023-07-24T05:59:11;21.80;99.90
45319;DHT22;31057;48.498;32.260;2023-07-24T06:01:13;21.50;99.90
45319;DHT22;31057;48.498;32.260;2023-07-24T06:03:16;21.60;99.90
45319;DHT22;31057;48.498;32.260;2023-07-24T06:05:17;21.90;99.90
45319;DHT22;31057;48.498;32.260;2023-07-24T06:07:21;21.80;99.90
45319;DHT22;31057;48.498;32.260;2023-07-24T06:09:23;21.90;99.90
45319;DHT22;31057;48.498;32.260;2023-07-24T06:11:25;21.90;99.90
45319;DHT22;31057;48.498;32.260;2023-07-24T06:13:28;22.10;99.90
45319;DHT22;31057;48.498;32.260;2023-07-24T06:15:30;22.30;99.90
45319;DHT22;31057;48.498;32.260;2023-07-24T06:17:32;22.20;99.90
45319;DHT22;31057;48.498;32.260;2023-07-24T06:19:34;22.30;99.90
45319;DHT22;31057;48.498;32.260;2023-07-24T06:21:35;22.40;99.90
45319;DHT22;31057;48.498;32.260;2023-07-24T06:23:37;22.40;99.90
45319;DHT22;31057;48.498;32.260;2023-07-24T06:25:39;22.30;99.90
45319;DHT22;31057;48.498;32.260;2023-07-24T06:27:41;22.50;99.90
45319;DHT22;31057;48.498;32.260;2023-07-24T06:29:43;22.70;99.90
45319;DHT22;31057;48.498;32.260;2023-07-24T06:31:45;22.70;99.90
45319;DHT22;31057;48.498;32.260;2023-07-24T06:33:47;22.70;99.90
45319;DHT22;31057;48.498;32.260;2023-07-24T06:35:49;22.60;99.90
45319;DHT22;31057;48.498;32.260;2023-07-24T06:37:51;22.60;99.90
45319;DHT22;31057;48.498;32.260;2023-07-24T06:39:53;22.60;99.90
45319;DHT22;31057;48.498;32.260;2023-07-24T06:41:55;22.90;99.90
45319;DHT22;31057;48.498;32.260;2023-07-24T06:43:57;22.90;99.90
45319;DHT22;31057;48.498;32.260;2023-07-24T06:45:58;22.80;99.90
45319;DHT22;31057;48.498;32.260;2023-07-24T06:48:00;22.70;99.90
45319;DHT22;31057;48.498;32.260;2023-07-24T06:50:02;22.70;99.90
45319;DHT22;31057;48.498;32.260;2023-07-24T06:52:06;22.80;99.90
45319;DHT22;31057;48.498;32.260;2023-07-24T06:54:08;23.00;99.90
45319;DHT22;31057;48.498;32.260;2023-07-24T06:56:09;23.20;99.90
45319;DHT22;31057;48.498;32.260;2023-07-24T06:58:11;23.10;99.90
45319;DHT22;31057;48.498;32.260;2023-07-24T07:00:13;23.20;99.90
45319;DHT22;31057;48.498;32.260;2023-07-24T07:02:15;23.30;99.90
45319;DHT22;31057;48.498;32.260;2023-07-24T07:04:17;23.40;99.90
45319;DHT22;31057;48.498;32.260;2023-07-24T07:06:19;23.40;99.90
45319;DHT22;31057;48.498;32.260;2023-07-24T07:08:24;23.30;99.90
45319;DHT22;31057;48.498;32.260;2023-07-24T07:10:25;23.20;99.90
45319;DHT22;31057;48.498;32.260;2023-07-24T07:12:27;23.40;99.90
45319;DHT22;31057;48.498;32.260;2023-07-24T07:14:30;23.50;99.90
45319;DHT22;31057;48.498;32.260;2023-07-24T07:16:31;23.30;99.90
45319;DHT22;31057;48.498;32.260;2023-07-24T07:18:34;23.40;99.90
45319;DHT22;31057;48.498;32.260;2023-07-24T07:20:36;23.50;99.90
45319;DHT22;31057;48.498;32.260;2023-07-24T07:22:37;23.80;99.90
45319;DHT22;31057;48.498;32.260;2023-07-24T07:24:39;24.00;99.90
45319;DHT22;31057;48.498;32.260;2023-07-24T07:26:41;24.10;99.90
45319;DHT22;31057;48.498;32.260;2023-07-24T07:28:43;24.40;99.90
45319;DHT22;31057;48.498;32.260;2023-07-24T07:30:46;24.30;99.90
45319;DHT22;31057;48.498;32.260;2023-07-24T07:32:48;24.60;99.90
45319;DHT22;31057;48.498;32.260;2023-07-24T07:34:50;24.60;99.90
45319;DHT22;31057;48.498;32.260;2023-07-24T07:36:52;24.80;99.90
45319;DHT22;31057;48.498;32.260;2023-07-24T07:38:54;24.70;99.90
45319;DHT22;31057;48.498;32.260;2023-07-24T07:40:56;24.40;99.90
45319;DHT22;31057;48.498;32.260;2023-07-24T07:42:58;24.00;99.90
45319;DHT22;31057;48.498;32.260;2023-07-24T07:44:59;24.20;99.90
45319;DHT22;31057;48.498;32.260;2023-07-24T07:47:01;24.70;99.90
45319;DHT22;31057;48.498;32.260;2023-07-24T07:49:03;24.40;99.90
45319;DHT22;31057;48.498;32.260;2023-07-24T07:51:05;24.80;99.90
45319;DHT22;31057;48.498;32.260;2023-07-24T07:53:07;24.90;99.90
45319;DHT22;31057;48.498;32.260;2023-07-24T07:55:09;24.50;99.90
45319;DHT22;31057;48.498;32.260;2023-07-24T07:57:11;23.90;99.90
45319;DHT22;31057;48.498;32.260;2023-07-24T07:59:12;23.70;99.90
45319;DHT22;31057;48.498;32.260;2023-07-24T08:01:14;23.40;99.90
45319;DHT22;31057;48.498;32.260;2023-07-24T08:03:16;23.30;99.90
45319;DHT22;31057;48.498;32.260;2023-07-24T08:05:18;23.50;99.90
45319;DHT22;31057;48.498;32.260;2023-07-24T08:07:22;23.40;99.90
45319;DHT22;31057;48.498;32.260;2023-07-24T08:09:24;23.90;99.90
45319;DHT22;31057;48.498;32.260;2023-07-24T08:11:25;24.50;99.90
45319;DHT22;31057;48.498;32.260;2023-07-24T08:13:27;24.80;99.90
45319;DHT22;31057;48.498;32.260;2023-07-24T08:15:33;25.10;99.90
45319;DHT22;31057;48.498;32.260;2023-07-24T08:17:35;25.30;99.90
45319;DHT22;31057;48.498;32.260;2023-07-24T08:19:37;25.20;99.90
45319;DHT22;31057;48.498;32.260;2023-07-24T08:21:39;25.20;99.90
45319;DHT22;31057;48.498;32.260;2023-07-24T08:23:41;25.40;99.90
45319;DHT22;31057;48.498;32.260;2023-07-24T08:25:53;25.30;99.90
45319;DHT22;31057;48.498;32.260;2023-07-24T08:27:55;25.20;99.90
45319;DHT22;31057;48.498;32.260;2023-07-24T08:30:06;24.40;99.90
45319;DHT22;31057;48.498;32.260;2023-07-24T08:32:08;24.60;99.90
45319;DHT22;31057;48.498;32.260;2023-07-24T08:34:10;25.00;99.90
45319;DHT22;31057;48.498;32.260;2023-07-24T08:36:14;25.30;99.90
45319;DHT22;31057;48.498;32.260;2023-07-24T08:38:16;25.70;99.90
45319;DHT22;31057;48.498;32.260;2023-07-24T08:40:18;26.00;99.90
45319;DHT22;31057;48.498;32.260;2023-07-24T08:42:22;26.00;99.90
45319;DHT22;31057;48.498;32.260;2023-07-24T08:44:24;25.20;99.90
45319;DHT22;31057;48.498;32.260;2023-07-24T08:46:27;25.30;99.90
45319;DHT22;31057;48.498;32.260;2023-07-24T08:48:34;24.30;99.90
45319;DHT22;31057;48.498;32.260;2023-07-24T08:50:37;24.40;99.90
45319;DHT22;31057;48.498;32.260;2023-07-24T08:52:39;24.60;99.90
45319;DHT22;31057;48.498;32.260;2023-07-24T08:54:41;24.40;99.90
45319;DHT22;31057;48.498;32.260;2023-07-24T08:56:44;24.80;99.90
45319;DHT22;31057;48.498;32.260;2023-07-24T08:58:48;25.10;99.90
45319;DHT22;31057;48.498;32.260;2023-07-24T09:00:50;25.30;99.90
45319;DHT22;31057;48.498;32.260;2023-07-24T09:02:53;25.50;99.90
45319;DHT22;31057;48.498;32.260;2023-07-24T09:04:55;25.40;99.90
45319;DHT22;31057;48.498;32.260;2023-07-24T09:06:57;24.70;99.90
45319;DHT22;31057;48.498;32.260;2023-07-24T09:09:02;24.80;99.90
45319;DHT22;31057;48.498;32.260;2023-07-24T09:11:05;25.00;99.90
45319;DHT22;31057;48.498;32.260;2023-07-24T09:13:07;25.30;99.90
45319;DHT22;31057;48.498;32.260;2023-07-24T09:15:09;25.50;99.90
45319;DHT22;31057;48.498;32.260;2023-07-24T09:17:11;25.80;99.90
45319;DHT22;31057;48.498;32.260;2023-07-24T09:19:16;26.10;99.90
45319;DHT22;31057;48.498;32.260;2023-07-24T09:21:30;26.20;99.90
45319;DHT22;31057;48.498;32.260;2023-07-24T09:23:32;26.00;99.90
45319;DHT22;31057;48.498;32.260;2023-07-24T09:25:35;25.40;99.90
45319;DHT22;31057;48.498;32.260;2023-07-24T09:27:37;25.30;99.90
45319;DHT22;31057;48.498;32.260;2023-07-24T09:29:39;25.00;99.90
45319;DHT22;31057;48.498;32.260;2023-07-24T09:31:41;25.10;99.90
45319;DHT22;31057;48.498;32.260;2023-07-24T09:33:42;24.90;99.90
45319;DHT22;31057;48.498;32.260;2023-07-24T09:35:57;25.40;99.90
45319;DHT22;31057;48.498;32.260;2023-07-24T09:38:07;25.70;99.90
45319;DHT22;31057;48.498;32.260;2023-07-24T09:40:10;26.00;99.90
45319;DHT22;31057;48.498;32.260;2023-07-24T09:42:12;25.80;99.90
45319;DHT22;31057;48.498;32.260;2023-07-24T09:44:15;25.90;99.90
45319;DHT22;31057;48.498;32.260;2023-07-24T09:46:16;25.70;99.90
45319;DHT22;31057;48.498;32.260;2023-07-24T09:48:19;24.80;99.90
45319;DHT22;31057;48.498;32.260;2023-07-24T09:50:24;25.30;99.90
45319;DHT22;31057;48.498;32.260;2023-07-24T09:52:27;25.70;99.90
45319;DHT22;31057;48.498;32.260;2023-07-24T09:54:32;25.90;99.90
45319;DHT22;31057;48.498;32.260;2023-07-24T09:56:34;25.60;99.90
45319;DHT22;31057;48.498;32.260;2023-07-24T09:58:52;25.40;99.90
45319;DHT22;31057;48.498;32.260;2023-07-24T10:00:56;25.40;99.90
45319;DHT22;31057;48.498;32.260;2023-07-24T10:02:59;25.40;99.90
45319;DHT22;31057;48.498;32.260;2023-07-24T10:05:01;25.70;99.90
45319;DHT22;31057;48.498;32.260;2023-07-24T10:07:04;25.50;99.90
45319;DHT22;31057;48.498;32.260;2023-07-24T10:09:06;25.50;99.90
45319;DHT22;31057;48.498;32.260;2023-07-24T10:11:09;25.50;99.90
45319;DHT22;31057;48.498;32.260;2023-07-24T10:13:12;25.80;99.90
45319;DHT22;31057;48.498;32.260;2023-07-24T10:15:16;25.60;99.90
45319;DHT22;31057;48.498;32.260;2023-07-24T10:17:37;25.90;99.90
45319;DHT22;31057;48.498;32.260;2023-07-24T10:19:40;26.10;99.90
45319;DHT22;31057;48.498;32.260;2023-07-24T10:21:47;26.10;99.90
45319;DHT22;31057;48.498;32.260;2023-07-24T10:23:49;26.10;99.90
45319;DHT22;31057;48.498;32.260;2023-07-24T10:25:51;25.80;99.90
45319;DHT22;31057;48.498;32.260;2023-07-24T10:27:54;25.50;99.90
45319;DHT22;31057;48.498;32.260;2023-07-24T10:30:01;25.70;99.90
45319;DHT22;31057;48.498;32.260;2023-07-24T10:32:28;25.70;99.90
45319;DHT22;31057;48.498;32.260;2023-07-24T10:34:37;25.90;99.90
45319;DHT22;31057;48.498;32.260;2023-07-24T10:36:39;25.70;99.90
45319;DHT22;31057;48.498;32.260;2023-07-24T10:38:42;25.70;99.90
45319;DHT22;31057;48.498;32.260;2023-07-24T10:40:46;25.60;99.90
45319;DHT22;31057;48.498;32.260;2023-07-24T10:42:58;26.00;99.90
45319;DHT22;31057;48.498;32.260;2023-07-24T10:45:06;26.20;99.90
45319;DHT22;31057;48.498;32.260;2023-07-24T10:47:08;25.50;99.90
45319;DHT22;31057;48.498;32.260;2023-07-24T10:49:11;25.90;99.90
45319;DHT22;31057;48.498;32.260;2023-07-24T10:51:13;25.80;99.90
45319;DHT22;31057;48.498;32.260;2023-07-24T10:53:18;25.60;99.90
45319;DHT22;31057;48.498;32.260;2023-07-24T10:55:20;25.40;99.90
45319;DHT22;31057;48.498;32.260;2023-07-24T10:57:26;25.70;99.90
45319;DHT22;31057;48.498;32.260;2023-07-24T10:59:40;25.70;99.90
45319;DHT22;31057;48.498;32.260;2023-07-24T11:01:42;25.80;99.90
45319;DHT22;31057;48.498;32.260;2023-07-24T11:03:45;25.80;99.90
45319;DHT22;31057;48.498;32.260;2023-07-24T11:05:47;26.30;99.90
45319;DHT22;31057;48.498;32.260;2023-07-24T11:07:49;26.10;99.90
45319;DHT22;31057;48.498;32.260;2023-07-24T11:09:51;26.40;99.90
45319;DHT22;31057;48.498;32.260;2023-07-24T11:11:55;26.40;99.90
45319;DHT22;31057;48.498;32.260;2023-07-24T11:13:57;25.60;99.90
45319;DHT22;31057;48.498;32.260;2023-07-24T11:16:03;25.80;99.90
45319;DHT22;31057;48.498;32.260;2023-07-24T11:18:06;26.00;99.90
45319;DHT22;31057;48.498;32.260;2023-07-24T11:20:11;26.30;99.90
45319;DHT22;31057;48.498;32.260;2023-07-24T11:22:14;26.30;99.90
45319;DHT22;31057;48.498;32.260;2023-07-24T11:24:17;26.50;99.90
45319;DHT22;31057;48.498;32.260;2023-07-24T11:26:19;26.80;99.20
45319;DHT22;31057;48.498;32.260;2023-07-24T11:28:22;26.40;99.60
45319;DHT22;31057;48.498;32.260;2023-07-24T11:30:24;26.60;99.60
45319;DHT22;31057;48.498;32.260;2023-07-24T11:32:27;26.70;99.10
45319;DHT22;31057;48.498;32.260;2023-07-24T11:34:29;26.90;99.90
45319;DHT22;31057;48.498;32.260;2023-07-24T11:36:31;26.80;98.60
45319;DHT22;31057;48.498;32.260;2023-07-24T11:38:33;26.90;99.90
45319;DHT22;31057;48.498;32.260;2023-07-24T11:42:38;26.20;99.70
45319;DHT22;31057;48.498;32.260;2023-07-24T11:44:40;26.40;99.80
45319;DHT22;31057;48.498;32.260;2023-07-24T11:46:42;26.20;99.50
45319;DHT22;31057;48.498;32.260;2023-07-24T11:48:44;26.50;99.30
45319;DHT22;31057;48.498;32.260;2023-07-24T11:50:56;26.80;98.90
45319;DHT22;31057;48.498;32.260;2023-07-24T11:52:58;26.90;98.90
45319;DHT22;31057;48.498;32.260;2023-07-24T11:55:00;26.60;98.80
45319;DHT22;31057;48.498;32.260;2023-07-24T11:57:14;26.60;98.60
45319;DHT22;31057;48.498;32.260;2023-07-24T11:59:17;26.50;97.60
45319;DHT22;31057;48.498;32.260;2023-07-24T12:01:19;26.30;99.30
45319;DHT22;31057;48.498;32.260;2023-07-24T12:03:27;25.80;99.00
45319;DHT22;31057;48.498;32.260;2023-07-24T12:05:37;26.00;99.90
45319;DHT22;31057;48.498;32.260;2023-07-24T12:07:39;26.10;97.80
45319;DHT22;31057;48.498;32.260;2023-07-24T12:09:41;26.30;97.30
45319;DHT22;31057;48.498;32.260;2023-07-24T12:11:43;26.30;97.90
45319;DHT22;31057;48.498;32.260;2023-07-24T12:13:47;26.10;97.80
45319;DHT22;31057;48.498;32.260;2023-07-24T12:15:52;26.30;98.00
45319;DHT22;31057;48.498;32.260;2023-07-24T12:17:54;26.60;97.20
45319;DHT22;31057;48.498;32.260;2023-07-24T12:19:56;26.80;97.70
45319;DHT22;31057;48.498;32.260;2023-07-24T12:21:58;26.60;94.80
45319;DHT22;31057;48.498;32.260;2023-07-24T12:24:00;26.80;95.60
45319;DHT22;31057;48.498;32.260;2023-07-24T12:26:02;26.10;92.00
45319;DHT22;31057;48.498;32.260;2023-07-24T12:28:04;26.60;93.10
45319;DHT22;31057;48.498;32.260;2023-07-24T12:30:06;26.30;93.90
45319;DHT22;31057;48.498;32.260;2023-07-24T12:32:08;26.10;94.60
45319;DHT22;31057;48.498;32.260;2023-07-24T12:34:10;26.10;94.20
45319;DHT22;31057;48.498;32.260;2023-07-24T12:36:12;26.30;94.90
45319;DHT22;31057;48.498;32.260;2023-07-24T12:38:14;26.20;95.80
45319;DHT22;31057;48.498;32.260;2023-07-24T12:40:15;26.40;95.70
45319;DHT22;31057;48.498;32.260;2023-07-24T12:42:17;26.80;94.40
45319;DHT22;31057;48.498;32.260;2023-07-24T12:44:19;27.20;93.90
45319;DHT22;31057;48.498;32.260;2023-07-24T12:46:21;27.30;92.20